sensor_id;sensor_type;location;lat;lon;timestamp;P1;durP1;ratioP1;P2;durP2;ratioP2
42332;SDS011;27984;51.476;5.702;2022-11-15T00:01:53;33.75;;;19.75;;
42332;SDS011;27984;51.476;5.702;2022-11-15T00:04:19;37.78;;;21.85;;
42332;SDS011;27984;51.476;5.702;2022-11-15T00:06:46;31.42;;;20.38;;
42332;SDS011;27984;51.476;5.702;2022-11-15T00:09:12;31.08;;;18.63;;
42332;SDS011;27984;51.476;5.702;2022-11-15T00:11:37;36.30;;;20.20;;
42332;SDS011;27984;51.476;5.702;2022-11-15T00:14:03;34.20;;;19.17;;
42332;SDS011;27984;51.476;5.702;2022-11-15T00:16:31;34.97;;;20.30;;
42332;SDS011;27984;51.476;5.702;2022-11-15T00:18:57;35.90;;;19.55;;
42332;SDS011;27984;51.476;5.702;2022-11-15T00:21:23;33.78;;;19.52;;
42332;SDS011;27984;51.476;5.702;2022-11-15T00:23:51;29.95;;;19.30;;
42332;SDS011;27984;51.476;5.702;2022-11-15T00:26:17;31.42;;;18.77;;
42332;SDS011;27984;51.476;5.702;2022-11-15T00:28:43;31.73;;;19.40;;
42332;SDS011;27984;51.476;5.702;2022-11-15T00:31:09;30.38;;;18.90;;
42332;SDS011;27984;51.476;5.702;2022-11-15T00:33:37;30.05;;;18.17;;
42332;SDS011;27984;51.476;5.702;2022-11-15T00:36:03;31.50;;;18.63;;
42332;SDS011;27984;51.476;5.702;2022-11-15T00:38:31;29.77;;;18.33;;
42332;SDS011;27984;51.476;5.702;2022-11-15T00:41:02;31.55;;;18.73;;
42332;SDS011;27984;51.476;5.702;2022-11-15T00:43:32;30.23;;;18.38;;
42332;SDS011;27984;51.476;5.702;2022-11-15T00:45:58;32.08;;;19.00;;
42332;SDS011;27984;51.476;5.702;2022-11-15T00:48:24;29.98;;;17.92;;
42332;SDS011;27984;51.476;5.702;2022-11-15T00:50:50;28.08;;;18.30;;
42332;SDS011;27984;51.476;5.702;2022-11-15T00:53:15;30.27;;;19.35;;
42332;SDS011;27984;51.476;5.702;2022-11-15T00:55:42;28.98;;;18.58;;
42332;SDS011;27984;51.476;5.702;2022-11-15T00:58:08;28.80;;;19.30;;
42332;SDS011;27984;51.476;5.702;2022-11-15T01:00:34;27.48;;;17.48;;
42332;SDS011;27984;51.476;5.702;2022-11-15T01:03:00;33.45;;;19.60;;
42332;SDS011;27984;51.476;5.702;2022-11-15T01:05:26;30.13;;;18.98;;
42332;SDS011;27984;51.476;5.702;2022-11-15T01:07:52;32.60;;;18.83;;
42332;SDS011;27984;51.476;5.702;2022-11-15T01:10:19;32.03;;;19.77;;
42332;SDS011;27984;51.476;5.702;2022-11-15T01:12:47;31.50;;;19.25;;
42332;SDS011;27984;51.476;5.702;2022-11-15T01:15:16;30.27;;;19.25;;
42332;SDS011;27984;51.476;5.702;2022-11-15T01:17:42;32.10;;;19.50;;
42332;SDS011;27984;51.476;5.702;2022-11-15T01:20:08;31.38;;;20.10;;
42332;SDS011;27984;51.476;5.702;2022-11-15T01:22:34;34.58;;;19.42;;
42332;SDS011;27984;51.476;5.702;2022-11-15T01:25:02;34.05;;;20.27;;
42332;SDS011;27984;51.476;5.702;2022-11-15T01:27:28;33.55;;;19.38;;
42332;SDS011;27984;51.476;5.702;2022-11-15T01:29:57;30.83;;;19.90;;
42332;SDS011;27984;51.476;5.702;2022-11-15T01:32:22;34.17;;;19.70;;
42332;SDS011;27984;51.476;5.702;2022-11-15T01:34:48;33.60;;;20.40;;
42332;SDS011;27984;51.476;5.702;2022-11-15T01:37:13;31.63;;;20.25;;
42332;SDS011;27984;51.476;5.702;2022-11-15T01:39:39;32.78;;;21.15;;
42332;SDS011;27984;51.476;5.702;2022-11-15T01:42:04;33.35;;;20.98;;
42332;SDS011;27984;51.476;5.702;2022-11-15T01:46:56;32.78;;;20.15;;
42332;SDS011;27984;51.476;5.702;2022-11-15T01:49:24;33.15;;;21.15;;
42332;SDS011;27984;51.476;5.702;2022-11-15T01:51:54;34.53;;;21.20;;
42332;SDS011;27984;51.476;5.702;2022-11-15T01:54:23;35.30;;;21.15;;
42332;SDS011;27984;51.476;5.702;2022-11-15T01:56:53;41.08;;;22.00;;
42332;SDS011;27984;51.476;5.702;2022-11-15T01:59:31;34.22;;;21.52;;
42332;SDS011;27984;51.476;5.702;2022-11-15T02:01:58;35.28;;;20.80;;
42332;SDS011;27984;51.476;5.702;2022-11-15T02:04:35;37.47;;;21.42;;
42332;SDS011;27984;51.476;5.702;2022-11-15T02:07:06;36.17;;;21.45;;
42332;SDS011;27984;51.476;5.702;2022-11-15T02:09:37;38.58;;;21.05;;
42332;SDS011;27984;51.476;5.702;2022-11-15T02:12:04;34.33;;;22.38;;
42332;SDS011;27984;51.476;5.702;2022-11-15T02:14:32;34.33;;;20.98;;
42332;SDS011;27984;51.476;5.702;2022-11-15T02:31:26;36.65;;;21.42;;
42332;SDS011;27984;51.476;5.702;2022-11-15T02:39:59;35.97;;;22.15;;
42332;SDS011;27984;51.476;5.702;2022-11-15T02:43:00;33.80;;;21.17;;
42332;SDS011;27984;51.476;5.702;2022-11-15T02:45:53;42.50;;;22.55;;
42332;SDS011;27984;51.476;5.702;2022-11-15T02:48:32;41.15;;;22.20;;
42332;SDS011;27984;51.476;5.702;2022-11-15T02:50:58;36.47;;;22.15;;
42332;SDS011;27984;51.476;5.702;2022-11-15T02:53:25;34.55;;;21.15;;
42332;SDS011;27984;51.476;5.702;2022-11-15T02:55:52;34.53;;;20.77;;
42332;SDS011;27984;51.476;5.702;2022-11-15T02:58:24;34.83;;;20.95;;
42332;SDS011;27984;51.476;5.702;2022-11-15T03:01:15;32.38;;;19.85;;
42332;SDS011;27984;51.476;5.702;2022-11-15T03:06:35;31.15;;;20.23;;
42332;SDS011;27984;51.476;5.702;2022-11-15T03:09:33;35.63;;;19.35;;
42332;SDS011;27984;51.476;5.702;2022-11-15T03:12:36;32.72;;;20.80;;
42332;SDS011;27984;51.476;5.702;2022-11-15T03:15:13;34.88;;;20.25;;
42332;SDS011;27984;51.476;5.702;2022-11-15T03:17:55;34.90;;;20.52;;
42332;SDS011;27984;51.476;5.702;2022-11-15T03:20:25;30.05;;;19.58;;
42332;SDS011;27984;51.476;5.702;2022-11-15T03:22:52;35.05;;;20.58;;
42332;SDS011;27984;51.476;5.702;2022-11-15T03:25:25;30.67;;;20.10;;
42332;SDS011;27984;51.476;5.702;2022-11-15T03:27:53;35.70;;;20.98;;
42332;SDS011;27984;51.476;5.702;2022-11-15T03:30:22;34.35;;;21.20;;
42332;SDS011;27984;51.476;5.702;2022-11-15T03:32:55;33.45;;;20.98;;
42332;SDS011;27984;51.476;5.702;2022-11-15T03:35:27;34.47;;;19.48;;
42332;SDS011;27984;51.476;5.702;2022-11-15T03:38:02;31.40;;;20.50;;
42332;SDS011;27984;51.476;5.702;2022-11-15T03:40:45;31.15;;;19.85;;
42332;SDS011;27984;51.476;5.702;2022-11-15T03:46:43;31.60;;;19.13;;
42332;SDS011;27984;51.476;5.702;2022-11-15T03:49:31;27.85;;;18.15;;
42332;SDS011;27984;51.476;5.702;2022-11-15T03:51:59;29.02;;;18.85;;
42332;SDS011;27984;51.476;5.702;2022-11-15T03:54:26;31.63;;;19.58;;
42332;SDS011;27984;51.476;5.702;2022-11-15T03:56:54;29.35;;;19.50;;
42332;SDS011;27984;51.476;5.702;2022-11-15T03:59:20;30.23;;;19.38;;
42332;SDS011;27984;51.476;5.702;2022-11-15T04:01:45;34.63;;;21.08;;
42332;SDS011;27984;51.476;5.702;2022-11-15T04:04:11;33.20;;;19.98;;
42332;SDS011;27984;51.476;5.702;2022-11-15T04:06:39;30.88;;;18.45;;
42332;SDS011;27984;51.476;5.702;2022-11-15T04:09:05;30.00;;;18.50;;
42332;SDS011;27984;51.476;5.702;2022-11-15T04:11:30;31.42;;;18.38;;
42332;SDS011;27984;51.476;5.702;2022-11-15T04:13:56;28.33;;;19.05;;
42332;SDS011;27984;51.476;5.702;2022-11-15T04:16:24;30.58;;;18.92;;
42332;SDS011;27984;51.476;5.702;2022-11-15T04:18:52;30.00;;;19.27;;
42332;SDS011;27984;51.476;5.702;2022-11-15T04:21:38;30.05;;;18.60;;
42332;SDS011;27984;51.476;5.702;2022-11-15T04:24:22;29.73;;;19.25;;
42332;SDS011;27984;51.476;5.702;2022-11-15T04:26:48;29.33;;;18.23;;
42332;SDS011;27984;51.476;5.702;2022-11-15T04:29:14;28.88;;;19.80;;
42332;SDS011;27984;51.476;5.702;2022-11-15T04:31:58;30.42;;;18.42;;
42332;SDS011;27984;51.476;5.702;2022-11-15T04:34:24;27.17;;;18.70;;
42332;SDS011;27984;51.476;5.702;2022-11-15T04:36:49;27.27;;;18.75;;
42332;SDS011;27984;51.476;5.702;2022-11-15T04:39:36;30.52;;;19.63;;
42332;SDS011;27984;51.476;5.702;2022-11-15T04:42:02;29.88;;;19.33;;
42332;SDS011;27984;51.476;5.702;2022-11-15T04:44:27;30.60;;;19.08;;
42332;SDS011;27984;51.476;5.702;2022-11-15T04:46:53;30.98;;;18.65;;
42332;SDS011;27984;51.476;5.702;2022-11-15T04:49:19;31.90;;;20.00;;
42332;SDS011;27984;51.476;5.702;2022-11-15T04:51:47;28.65;;;18.80;;
42332;SDS011;27984;51.476;5.702;2022-11-15T04:54:12;27.77;;;18.27;;
42332;SDS011;27984;51.476;5.702;2022-11-15T04:56:38;29.08;;;18.70;;
42332;SDS011;27984;51.476;5.702;2022-11-15T04:59:04;27.98;;;19.15;;
42332;SDS011;27984;51.476;5.702;2022-11-15T05:01:29;31.52;;;19.83;;
42332;SDS011;27984;51.476;5.702;2022-11-15T05:03:55;32.55;;;20.17;;
42332;SDS011;27984;51.476;5.702;2022-11-15T05:06:39;34.75;;;19.77;;
42332;SDS011;27984;51.476;5.702;2022-11-15T05:09:07;34.22;;;20.00;;
42332;SDS011;27984;51.476;5.702;2022-11-15T05:11:32;38.45;;;20.83;;
42332;SDS011;27984;51.476;5.702;2022-11-15T05:13:58;33.80;;;21.05;;
42332;SDS011;27984;51.476;5.702;2022-11-15T05:16:23;39.47;;;21.92;;
42332;SDS011;27984;51.476;5.702;2022-11-15T05:18:53;36.78;;;22.42;;
42332;SDS011;27984;51.476;5.702;2022-11-15T05:21:19;36.05;;;22.50;;
42332;SDS011;27984;51.476;5.702;2022-11-15T05:23:44;35.10;;;21.55;;
42332;SDS011;27984;51.476;5.702;2022-11-15T05:26:10;33.15;;;22.20;;
42332;SDS011;27984;51.476;5.702;2022-11-15T05:28:37;37.50;;;22.67;;
42332;SDS011;27984;51.476;5.702;2022-11-15T05:31:03;35.20;;;22.58;;
42332;SDS011;27984;51.476;5.702;2022-11-15T05:33:31;30.00;;;20.60;;
42332;SDS011;27984;51.476;5.702;2022-11-15T05:38:32;30.92;;;20.42;;
42332;SDS011;27984;51.476;5.702;2022-11-15T05:40:59;35.53;;;20.58;;
42332;SDS011;27984;51.476;5.702;2022-11-15T05:43:28;32.03;;;19.83;;
42332;SDS011;27984;51.476;5.702;2022-11-15T05:45:57;29.13;;;18.88;;
42332;SDS011;27984;51.476;5.702;2022-11-15T05:48:23;37.53;;;20.67;;
42332;SDS011;27984;51.476;5.702;2022-11-15T05:50:49;37.30;;;20.90;;
42332;SDS011;27984;51.476;5.702;2022-11-15T05:53:15;38.38;;;19.75;;
42332;SDS011;27984;51.476;5.702;2022-11-15T05:55:43;33.20;;;20.77;;
42332;SDS011;27984;51.476;5.702;2022-11-15T05:58:09;37.42;;;20.13;;
42332;SDS011;27984;51.476;5.702;2022-11-15T06:00:35;36.25;;;20.48;;
42332;SDS011;27984;51.476;5.702;2022-11-15T06:03:01;34.38;;;20.08;;
42332;SDS011;27984;51.476;5.702;2022-11-15T06:05:28;34.42;;;19.95;;
42332;SDS011;27984;51.476;5.702;2022-11-15T06:07:57;34.17;;;20.38;;
42332;SDS011;27984;51.476;5.702;2022-11-15T06:10:23;35.05;;;19.77;;
42332;SDS011;27984;51.476;5.702;2022-11-15T06:12:58;31.80;;;19.85;;
42332;SDS011;27984;51.476;5.702;2022-11-15T06:15:28;34.63;;;19.20;;
42332;SDS011;27984;51.476;5.702;2022-11-15T06:17:56;35.45;;;19.42;;
42332;SDS011;27984;51.476;5.702;2022-11-15T06:20:25;38.03;;;19.98;;
42332;SDS011;27984;51.476;5.702;2022-11-15T06:23:02;28.85;;;15.23;;
42332;SDS011;27984;51.476;5.702;2022-11-15T06:25:29;40.30;;;18.80;;
42332;SDS011;27984;51.476;5.702;2022-11-15T06:27:55;30.70;;;17.05;;
42332;SDS011;27984;51.476;5.702;2022-11-15T06:30:23;33.80;;;17.70;;
42332;SDS011;27984;51.476;5.702;2022-11-15T06:32:50;35.00;;;19.25;;
42332;SDS011;27984;51.476;5.702;2022-11-15T06:35:16;36.03;;;19.70;;
42332;SDS011;27984;51.476;5.702;2022-11-15T06:37:45;34.65;;;19.92;;
42332;SDS011;27984;51.476;5.702;2022-11-15T06:40:10;31.48;;;19.70;;
42332;SDS011;27984;51.476;5.702;2022-11-15T06:42:38;29.75;;;18.55;;
42332;SDS011;27984;51.476;5.702;2022-11-15T06:45:04;32.92;;;18.67;;
42332;SDS011;27984;51.476;5.702;2022-11-15T06:47:33;32.45;;;17.30;;
42332;SDS011;27984;51.476;5.702;2022-11-15T06:49:58;27.23;;;17.98;;
42332;SDS011;27984;51.476;5.702;2022-11-15T06:52:24;27.77;;;16.63;;
42332;SDS011;27984;51.476;5.702;2022-11-15T06:54:50;29.08;;;17.38;;
42332;SDS011;27984;51.476;5.702;2022-11-15T06:57:15;23.70;;;15.95;;
42332;SDS011;27984;51.476;5.702;2022-11-15T06:59:43;25.60;;;14.85;;
42332;SDS011;27984;51.476;5.702;2022-11-15T07:02:12;27.42;;;16.63;;
42332;SDS011;27984;51.476;5.702;2022-11-15T07:04:38;27.90;;;15.50;;
42332;SDS011;27984;51.476;5.702;2022-11-15T07:07:04;26.17;;;15.25;;
42332;SDS011;27984;51.476;5.702;2022-11-15T07:09:29;26.67;;;15.52;;
42332;SDS011;27984;51.476;5.702;2022-11-15T07:11:55;23.92;;;14.63;;
42332;SDS011;27984;51.476;5.702;2022-11-15T07:14:20;24.83;;;15.25;;
42332;SDS011;27984;51.476;5.702;2022-11-15T07:16:46;25.35;;;14.27;;
42332;SDS011;27984;51.476;5.702;2022-11-15T07:19:12;26.05;;;15.15;;
42332;SDS011;27984;51.476;5.702;2022-11-15T07:21:40;27.58;;;14.80;;
42332;SDS011;27984;51.476;5.702;2022-11-15T07:24:08;25.60;;;14.32;;
42332;SDS011;27984;51.476;5.702;2022-11-15T07:26:34;23.60;;;14.02;;
42332;SDS011;27984;51.476;5.702;2022-11-15T07:28:59;21.40;;;13.18;;
42332;SDS011;27984;51.476;5.702;2022-11-15T07:31:25;21.50;;;12.55;;
42332;SDS011;27984;51.476;5.702;2022-11-15T07:33:51;22.85;;;12.70;;
42332;SDS011;27984;51.476;5.702;2022-11-15T07:36:16;23.73;;;13.68;;
42332;SDS011;27984;51.476;5.702;2022-11-15T07:38:44;22.08;;;13.18;;
42332;SDS011;27984;51.476;5.702;2022-11-15T07:41:10;22.85;;;14.32;;
42332;SDS011;27984;51.476;5.702;2022-11-15T07:43:37;25.63;;;13.35;;
42332;SDS011;27984;51.476;5.702;2022-11-15T07:46:06;25.45;;;14.02;;
42332;SDS011;27984;51.476;5.702;2022-11-15T07:48:34;25.52;;;13.05;;
42332;SDS011;27984;51.476;5.702;2022-11-15T07:51:00;20.35;;;13.45;;
42332;SDS011;27984;51.476;5.702;2022-11-15T07:53:30;23.60;;;13.45;;
42332;SDS011;27984;51.476;5.702;2022-11-15T07:55:56;20.55;;;12.43;;
42332;SDS011;27984;51.476;5.702;2022-11-15T07:58:24;23.65;;;13.45;;
42332;SDS011;27984;51.476;5.702;2022-11-15T08:00:49;21.45;;;13.00;;
42332;SDS011;27984;51.476;5.702;2022-11-15T08:03:15;23.77;;;13.27;;
42332;SDS011;27984;51.476;5.702;2022-11-15T08:05:42;20.60;;;12.88;;
42332;SDS011;27984;51.476;5.702;2022-11-15T08:08:08;21.38;;;11.82;;
42332;SDS011;27984;51.476;5.702;2022-11-15T08:10:36;19.92;;;11.93;;
42332;SDS011;27984;51.476;5.702;2022-11-15T08:13:05;23.48;;;12.20;;
42332;SDS011;27984;51.476;5.702;2022-11-15T08:15:33;20.45;;;11.18;;
42332;SDS011;27984;51.476;5.702;2022-11-15T08:18:00;16.60;;;10.77;;
42332;SDS011;27984;51.476;5.702;2022-11-15T08:20:28;18.02;;;10.65;;
42332;SDS011;27984;51.476;5.702;2022-11-15T08:22:58;16.85;;;10.15;;
42332;SDS011;27984;51.476;5.702;2022-11-15T08:25:25;16.23;;;9.95;;
42332;SDS011;27984;51.476;5.702;2022-11-15T08:27:55;13.82;;;9.93;;
42332;SDS011;27984;51.476;5.702;2022-11-15T08:30:22;14.10;;;9.30;;
42332;SDS011;27984;51.476;5.702;2022-11-15T08:32:51;13.98;;;8.60;;
42332;SDS011;27984;51.476;5.702;2022-11-15T08:35:18;17.60;;;9.40;;
42332;SDS011;27984;51.476;5.702;2022-11-15T08:37:45;13.75;;;8.77;;
42332;SDS011;27984;51.476;5.702;2022-11-15T08:40:13;15.07;;;9.18;;
42332;SDS011;27984;51.476;5.702;2022-11-15T08:42:40;12.38;;;8.52;;
42332;SDS011;27984;51.476;5.702;2022-11-15T08:45:06;13.15;;;8.82;;
42332;SDS011;27984;51.476;5.702;2022-11-15T08:47:35;14.43;;;9.27;;
42332;SDS011;27984;51.476;5.702;2022-11-15T08:50:01;13.13;;;8.43;;
42332;SDS011;27984;51.476;5.702;2022-11-15T08:52:26;10.93;;;7.70;;
42332;SDS011;27984;51.476;5.702;2022-11-15T08:54:54;11.18;;;7.35;;
42332;SDS011;27984;51.476;5.702;2022-11-15T08:57:23;15.32;;;8.18;;
42332;SDS011;27984;51.476;5.702;2022-11-15T08:59:49;10.65;;;7.22;;
42332;SDS011;27984;51.476;5.702;2022-11-15T09:02:15;11.05;;;5.57;;
42332;SDS011;27984;51.476;5.702;2022-11-15T09:04:41;8.77;;;5.53;;
42332;SDS011;27984;51.476;5.702;2022-11-15T09:07:11;8.10;;;5.40;;
42332;SDS011;27984;51.476;5.702;2022-11-15T09:09:39;10.13;;;5.50;;
42332;SDS011;27984;51.476;5.702;2022-11-15T09:12:05;8.63;;;5.10;;
42332;SDS011;27984;51.476;5.702;2022-11-15T09:14:32;6.03;;;4.43;;
42332;SDS011;27984;51.476;5.702;2022-11-15T09:16:58;7.40;;;4.10;;
42332;SDS011;27984;51.476;5.702;2022-11-15T09:19:24;6.38;;;4.00;;
42332;SDS011;27984;51.476;5.702;2022-11-15T09:21:49;6.13;;;4.00;;
42332;SDS011;27984;51.476;5.702;2022-11-15T09:24:15;6.68;;;4.20;;
42332;SDS011;27984;51.476;5.702;2022-11-15T09:26:42;6.93;;;3.92;;
42332;SDS011;27984;51.476;5.702;2022-11-15T09:29:08;3.92;;;3.42;;
42332;SDS011;27984;51.476;5.702;2022-11-15T09:31:36;6.38;;;3.17;;
42332;SDS011;27984;51.476;5.702;2022-11-15T09:34:01;3.97;;;2.95;;
42332;SDS011;27984;51.476;5.702;2022-11-15T09:36:27;3.25;;;2.50;;
42332;SDS011;27984;51.476;5.702;2022-11-15T09:38:56;5.82;;;2.40;;
42332;SDS011;27984;51.476;5.702;2022-11-15T09:44:39;3.40;;;2.40;;
42332;SDS011;27984;51.476;5.702;2022-11-15T09:49:56;3.53;;;1.60;;
42332;SDS011;27984;51.476;5.702;2022-11-15T09:52:24;2.33;;;1.73;;
42332;SDS011;27984;51.476;5.702;2022-11-15T09:54:51;2.90;;;1.88;;
42332;SDS011;27984;51.476;5.702;2022-11-15T10:02:46;4.90;;;1.35;;
42332;SDS011;27984;51.476;5.702;2022-11-15T10:05:28;5.43;;;1.50;;
42332;SDS011;27984;51.476;5.702;2022-11-15T10:10:37;5.78;;;1.63;;
42332;SDS011;27984;51.476;5.702;2022-11-15T10:13:12;4.00;;;1.20;;
42332;SDS011;27984;51.476;5.702;2022-11-15T10:15:43;3.60;;;1.33;;
42332;SDS011;27984;51.476;5.702;2022-11-15T10:21:00;4.28;;;1.20;;
42332;SDS011;27984;51.476;5.702;2022-11-15T10:23:38;2.00;;;1.02;;
42332;SDS011;27984;51.476;5.702;2022-11-15T10:26:04;3.17;;;1.20;;
42332;SDS011;27984;51.476;5.702;2022-11-15T10:28:35;4.85;;;0.95;;
42332;SDS011;27984;51.476;5.702;2022-11-15T10:31:01;3.30;;;1.30;;
42332;SDS011;27984;51.476;5.702;2022-11-15T10:33:34;3.50;;;1.30;;
42332;SDS011;27984;51.476;5.702;2022-11-15T10:46:38;4.03;;;1.20;;
42332;SDS011;27984;51.476;5.702;2022-11-15T10:49:18;7.68;;;1.50;;
42332;SDS011;27984;51.476;5.702;2022-11-15T10:54:20;6.88;;;1.40;;
42332;SDS011;27984;51.476;5.702;2022-11-15T10:56:54;4.57;;;1.40;;
42332;SDS011;27984;51.476;5.702;2022-11-15T10:59:31;5.45;;;2.05;;
42332;SDS011;27984;51.476;5.702;2022-11-15T11:02:00;10.63;;;1.70;;
42332;SDS011;27984;51.476;5.702;2022-11-15T11:04:26;3.72;;;1.45;;
42332;SDS011;27984;51.476;5.702;2022-11-15T11:06:56;2.92;;;1.20;;
42332;SDS011;27984;51.476;5.702;2022-11-15T11:09:36;3.92;;;1.15;;
42332;SDS011;27984;51.476;5.702;2022-11-15T11:12:04;5.38;;;1.23;;
42332;SDS011;27984;51.476;5.702;2022-11-15T11:14:35;5.07;;;1.30;;
42332;SDS011;27984;51.476;5.702;2022-11-15T11:30:33;4.03;;;1.60;;
42332;SDS011;27984;51.476;5.702;2022-11-15T11:38:29;3.22;;;1.40;;
42332;SDS011;27984;51.476;5.702;2022-11-15T11:41:26;3.65;;;1.30;;
42332;SDS011;27984;51.476;5.702;2022-11-15T11:49:20;3.88;;;1.23;;
42332;SDS011;27984;51.476;5.702;2022-11-15T11:52:08;2.85;;;1.10;;
42332;SDS011;27984;51.476;5.702;2022-11-15T12:02:41;4.53;;;0.98;;
42332;SDS011;27984;51.476;5.702;2022-11-15T12:05:29;7.68;;;1.20;;
42332;SDS011;27984;51.476;5.702;2022-11-15T12:11:12;3.88;;;1.00;;
42332;SDS011;27984;51.476;5.702;2022-11-15T12:14:03;3.80;;;1.20;;
42332;SDS011;27984;51.476;5.702;2022-11-15T12:16:36;4.45;;;1.10;;
42332;SDS011;27984;51.476;5.702;2022-11-15T12:19:03;6.32;;;1.55;;
42332;SDS011;27984;51.476;5.702;2022-11-15T12:24:26;6.53;;;1.13;;
42332;SDS011;27984;51.476;5.702;2022-11-15T12:29:41;3.90;;;1.23;;
42332;SDS011;27984;51.476;5.702;2022-11-15T12:32:36;5.03;;;1.10;;
42332;SDS011;27984;51.476;5.702;2022-11-15T12:35:04;5.15;;;1.20;;
42332;SDS011;27984;51.476;5.702;2022-11-15T12:37:47;5.57;;;1.30;;
42332;SDS011;27984;51.476;5.702;2022-11-15T12:40:17;5.07;;;1.00;;
42332;SDS011;27984;51.476;5.702;2022-11-15T12:47:55;3.55;;;1.33;;
42332;SDS011;27984;51.476;5.702;2022-11-15T12:53:32;4.55;;;0.88;;
42332;SDS011;27984;51.476;5.702;2022-11-15T12:58:41;4.90;;;1.00;;
42332;SDS011;27984;51.476;5.702;2022-11-15T13:19:45;6.10;;;0.90;;
42332;SDS011;27984;51.476;5.702;2022-11-15T13:22:13;6.15;;;1.08;;
42332;SDS011;27984;51.476;5.702;2022-11-15T13:24:57;4.80;;;1.33;;
42332;SDS011;27984;51.476;5.702;2022-11-15T13:27:25;5.15;;;1.10;;
42332;SDS011;27984;51.476;5.702;2022-11-15T13:29:51;4.43;;;1.00;;
42332;SDS011;27984;51.476;5.702;2022-11-15T13:32:17;4.80;;;1.50;;
42332;SDS011;27984;51.476;5.702;2022-11-15T13:34:47;5.63;;;0.98;;
42332;SDS011;27984;51.476;5.702;2022-11-15T13:39:46;4.53;;;0.73;;
42332;SDS011;27984;51.476;5.702;2022-11-15T13:42:16;5.85;;;1.23;;
42332;SDS011;27984;51.476;5.702;2022-11-15T13:44:59;4.32;;;1.25;;
42332;SDS011;27984;51.476;5.702;2022-11-15T13:47:26;3.13;;;1.08;;
42332;SDS011;27984;51.476;5.702;2022-11-15T13:49:52;4.93;;;0.98;;
42332;SDS011;27984;51.476;5.702;2022-11-15T13:52:18;3.80;;;1.00;;
42332;SDS011;27984;51.476;5.702;2022-11-15T13:54:47;5.63;;;1.00;;
42332;SDS011;27984;51.476;5.702;2022-11-15T13:57:23;2.90;;;1.00;;
42332;SDS011;27984;51.476;5.702;2022-11-15T14:02:57;5.03;;;0.95;;
42332;SDS011;27984;51.476;5.702;2022-11-15T14:05:32;5.43;;;0.88;;
42332;SDS011;27984;51.476;5.702;2022-11-15T14:07:59;4.13;;;1.08;;
42332;SDS011;27984;51.476;5.702;2022-11-15T14:10:37;3.17;;;1.10;;
42332;SDS011;27984;51.476;5.702;2022-11-15T14:13:04;5.43;;;1.33;;
42332;SDS011;27984;51.476;5.702;2022-11-15T14:15:51;5.25;;;1.10;;
42332;SDS011;27984;51.476;5.702;2022-11-15T14:21:07;2.17;;;0.88;;
42332;SDS011;27984;51.476;5.702;2022-11-15T14:23:33;3.28;;;0.85;;
42332;SDS011;27984;51.476;5.702;2022-11-15T14:25:59;4.55;;;0.80;;
42332;SDS011;27984;51.476;5.702;2022-11-15T14:30:51;4.07;;;1.00;;
42332;SDS011;27984;51.476;5.702;2022-11-15T14:33:23;2.70;;;1.02;;
42332;SDS011;27984;51.476;5.702;2022-11-15T14:35:53;6.22;;;1.15;;
42332;SDS011;27984;51.476;5.702;2022-11-15T14:38:20;5.03;;;1.10;;
42332;SDS011;27984;51.476;5.702;2022-11-15T14:40:46;6.13;;;1.30;;
42332;SDS011;27984;51.476;5.702;2022-11-15T14:43:12;3.85;;;0.90;;
42332;SDS011;27984;51.476;5.702;2022-11-15T14:45:39;5.05;;;1.00;;
42332;SDS011;27984;51.476;5.702;2022-11-15T14:48:04;6.18;;;1.33;;
42332;SDS011;27984;51.476;5.702;2022-11-15T14:50:33;4.43;;;1.20;;
42332;SDS011;27984;51.476;5.702;2022-11-15T14:52:59;4.38;;;1.20;;
42332;SDS011;27984;51.476;5.702;2022-11-15T14:55:29;4.50;;;1.30;;
42332;SDS011;27984;51.476;5.702;2022-11-15T14:58:00;3.33;;;1.25;;
42332;SDS011;27984;51.476;5.702;2022-11-15T15:00:30;7.78;;;1.70;;
42332;SDS011;27984;51.476;5.702;2022-11-15T15:02:56;8.95;;;1.58;;
42332;SDS011;27984;51.476;5.702;2022-11-15T15:05:23;8.80;;;1.45;;
42332;SDS011;27984;51.476;5.702;2022-11-15T15:07:49;4.93;;;1.83;;
42332;SDS011;27984;51.476;5.702;2022-11-15T15:10:18;6.43;;;1.30;;
42332;SDS011;27984;51.476;5.702;2022-11-15T15:12:44;2.72;;;1.25;;
42332;SDS011;27984;51.476;5.702;2022-11-15T15:15:14;9.82;;;1.98;;
42332;SDS011;27984;51.476;5.702;2022-11-15T15:17:41;11.90;;;2.00;;
42332;SDS011;27984;51.476;5.702;2022-11-15T15:20:08;15.30;;;2.20;;
42332;SDS011;27984;51.476;5.702;2022-11-15T15:22:35;8.82;;;2.25;;
42332;SDS011;27984;51.476;5.702;2022-11-15T15:25:02;9.90;;;1.95;;
42332;SDS011;27984;51.476;5.702;2022-11-15T15:27:28;10.68;;;2.10;;
42332;SDS011;27984;51.476;5.702;2022-11-15T15:30:00;11.18;;;1.88;;
42332;SDS011;27984;51.476;5.702;2022-11-15T15:32:28;7.07;;;1.50;;
42332;SDS011;27984;51.476;5.702;2022-11-15T15:34:57;9.18;;;1.65;;
42332;SDS011;27984;51.476;5.702;2022-11-15T15:37:24;12.15;;;1.70;;
42332;SDS011;27984;51.476;5.702;2022-11-15T15:39:55;8.85;;;2.20;;
42332;SDS011;27984;51.476;5.702;2022-11-15T15:42:22;10.98;;;2.00;;
42332;SDS011;27984;51.476;5.702;2022-11-15T15:44:48;5.63;;;1.60;;
42332;SDS011;27984;51.476;5.702;2022-11-15T15:47:15;9.75;;;2.50;;
42332;SDS011;27984;51.476;5.702;2022-11-15T15:49:43;7.65;;;2.75;;
42332;SDS011;27984;51.476;5.702;2022-11-15T15:52:09;9.63;;;2.60;;
42332;SDS011;27984;51.476;5.702;2022-11-15T15:54:36;12.63;;;2.95;;
42332;SDS011;27984;51.476;5.702;2022-11-15T15:57:02;12.75;;;3.10;;
42332;SDS011;27984;51.476;5.702;2022-11-15T15:59:28;7.47;;;2.65;;
42332;SDS011;27984;51.476;5.702;2022-11-15T16:01:53;7.57;;;2.75;;
42332;SDS011;27984;51.476;5.702;2022-11-15T16:04:19;12.60;;;2.70;;
42332;SDS011;27984;51.476;5.702;2022-11-15T16:06:45;6.28;;;2.22;;
42332;SDS011;27984;51.476;5.702;2022-11-15T16:09:12;9.20;;;2.30;;
42332;SDS011;27984;51.476;5.702;2022-11-15T16:11:39;4.57;;;1.92;;
42332;SDS011;27984;51.476;5.702;2022-11-15T16:14:06;11.18;;;1.88;;
42332;SDS011;27984;51.476;5.702;2022-11-15T16:16:33;6.78;;;1.63;;
42332;SDS011;27984;51.476;5.702;2022-11-15T16:19:00;5.93;;;1.80;;
42332;SDS011;27984;51.476;5.702;2022-11-15T16:21:26;8.00;;;1.52;;
42332;SDS011;27984;51.476;5.702;2022-11-15T16:23:52;4.38;;;1.48;;
42332;SDS011;27984;51.476;5.702;2022-11-15T16:26:20;5.88;;;1.70;;
42332;SDS011;27984;51.476;5.702;2022-11-15T16:28:48;5.82;;;1.90;;
42332;SDS011;27984;51.476;5.702;2022-11-15T16:31:14;4.53;;;1.48;;
42332;SDS011;27984;51.476;5.702;2022-11-15T16:33:43;3.00;;;1.60;;
42332;SDS011;27984;51.476;5.702;2022-11-15T16:36:21;8.63;;;2.15;;
42332;SDS011;27984;51.476;5.702;2022-11-15T16:38:48;4.13;;;1.70;;
42332;SDS011;27984;51.476;5.702;2022-11-15T16:41:15;3.90;;;1.70;;
42332;SDS011;27984;51.476;5.702;2022-11-15T16:43:44;7.30;;;1.98;;
42332;SDS011;27984;51.476;5.702;2022-11-15T16:46:17;7.60;;;2.42;;
42332;SDS011;27984;51.476;5.702;2022-11-15T16:48:49;5.18;;;2.60;;
42332;SDS011;27984;51.476;5.702;2022-11-15T16:51:18;5.90;;;2.55;;
42332;SDS011;27984;51.476;5.702;2022-11-15T16:53:47;4.57;;;2.28;;
42332;SDS011;27984;51.476;5.702;2022-11-15T16:56:17;5.22;;;2.25;;
42332;SDS011;27984;51.476;5.702;2022-11-15T16:58:45;4.78;;;2.55;;
42332;SDS011;27984;51.476;5.702;2022-11-15T17:01:18;5.95;;;2.70;;
42332;SDS011;27984;51.476;5.702;2022-11-15T17:03:47;7.78;;;2.88;;
42332;SDS011;27984;51.476;5.702;2022-11-15T17:06:13;3.50;;;2.75;;
42332;SDS011;27984;51.476;5.702;2022-11-15T17:08:39;7.10;;;3.30;;